Time;durP1;ratioP1;P1;durP2;ratioP2;P2;SDS_P1;SDS_P2;PMS_P1;PMS_P2;Temp;Humidity;BMP_temperature;BMP_pressure;BME280_temperature;BME280_humidity;BME280_pressure;Samples;Min_cycle;Max_cycle;Signal;HPM_P1;HPM_P2
2021/09/12 00:01:18;;;;;;;2.75;2.60;;;16.80;99.90;;;;;;5030349;28;20073;-63
2021/09/12 00:03:46;;;;;;;3.30;3.00;;;16.80;99.90;;;;;;5030243;28;20045;-63
2021/09/12 00:06:13;;;;;;;3.50;3.20;;;16.80;99.90;;;;;;5028914;28;20044;-63
2021/09/12 00:08:40;;;;;;;4.28;3.88;;;16.80;99.90;;;;;;5030147;28;20127;-63
2021/09/12 00:11:07;;;;;;;3.50;3.20;;;16.70;99.90;;;;;;5030117;28;20531;-64
2021/09/12 00:13:34;;;;;;;3.13;2.83;;;16.70;99.90;;;;;;5030462;28;20057;-64
2021/09/12 00:16:01;;;;;;;2.85;2.58;;;16.70;99.90;;;;;;5028436;28;20049;-63
2021/09/12 00:18:28;;;;;;;3.47;3.17;;;16.70;99.90;;;;;;5029729;28;20073;-66
2021/09/12 00:20:55;;;;;;;3.58;3.28;;;16.70;99.90;;;;;;5029954;28;20127;-63
2021/09/12 00:23:22;;;;;;;3.03;2.83;;;16.70;99.90;;;;;;5029911;28;20053;-65
2021/09/12 00:25:48;;;;;;;4.55;2.92;;;16.70;99.90;;;;;;5030228;28;20069;-63
2021/09/12 00:28:15;;;;;;;3.40;3.10;;;16.70;99.90;;;;;;5027942;28;20046;-64
2021/09/12 00:30:42;;;;;;;5.20;3.65;;;16.70;99.90;;;;;;5029691;28;20425;-63
2021/09/12 00:33:09;;;;;;;3.95;2.88;;;16.60;99.90;;;;;;5031257;28;20073;-64
2021/09/12 00:35:36;;;;;;;3.53;3.22;;;16.60;99.90;;;;;;5033684;28;20045;-66
2021/09/12 00:38:03;;;;;;;3.60;3.20;;;16.60;99.90;;;;;;5031483;28;20103;-65
2021/09/12 00:40:30;;;;;;;3.15;2.95;;;16.50;99.90;;;;;;5033097;28;20108;-64
2021/09/12 00:42:57;;;;;;;3.33;3.05;;;16.50;99.90;;;;;;5033238;28;20079;-65
2021/09/12 00:45:24;;;;;;;3.95;3.00;;;16.60;99.90;;;;;;5033418;28;20528;-65
2021/09/12 00:47:51;;;;;;;4.93;3.65;;;16.50;99.90;;;;;;5033178;28;20512;-65
2021/09/12 00:50:19;;;;;;;4.72;3.30;;;16.50;99.90;;;;;;5031685;28;20065;-64
2021/09/12 00:52:47;;;;;;;5.57;3.17;;;16.50;99.90;;;;;;5033111;28;20140;-64
2021/09/12 00:55:15;;;;;;;5.20;3.33;;;16.50;99.90;;;;;;5032642;28;20073;-64
2021/09/12 00:57:44;;;;;;;3.40;2.78;;;16.50;99.90;;;;;;5032781;28;20069;-64
2021/09/12 01:00:13;;;;;;;4.38;3.53;;;16.40;99.90;;;;;;5032158;28;20083;-63
2021/09/12 01:02:40;;;;;;;5.93;3.22;;;16.40;99.90;;;;;;5032645;23;20495;-70
2021/09/12 01:05:08;;;;;;;6.47;4.60;;;16.40;99.90;;;;;;5013476;28;20317;-67
2021/09/12 01:07:37;;;;;;;3.70;3.40;;;16.40;99.90;;;;;;5013512;28;20077;-67
2021/09/12 01:10:04;;;;;;;4.38;3.72;;;16.40;99.90;;;;;;5011951;28;20050;-66
2021/09/12 01:12:33;;;;;;;5.97;3.47;;;16.40;99.90;;;;;;5013098;28;20080;-66
2021/09/12 01:15:00;;;;;;;3.58;3.28;;;16.40;99.90;;;;;;5013056;28;20378;-66
2021/09/12 01:17:28;;;;;;;3.40;3.10;;;16.40;99.90;;;;;;5013335;28;20473;-67
2021/09/12 01:19:55;;;;;;;3.78;2.97;;;16.30;99.90;;;;;;5011453;28;20053;-65
2021/09/12 01:22:23;;;;;;;6.10;4.32;;;16.30;99.90;;;;;;5012883;28;20118;-66
2021/09/12 01:24:50;;;;;;;2.72;2.53;;;16.30;99.90;;;;;;5013113;28;20246;-67
2021/09/12 01:27:17;;;;;;;4.63;3.13;;;16.30;99.90;;;;;;5013081;28;20100;-66
2021/09/12 01:29:44;;;;;;;3.25;2.40;;;16.30;99.90;;;;;;5013121;28;20121;-67
2021/09/12 01:32:11;;;;;;;4.40;3.03;;;16.30;99.90;;;;;;5011389;28;20069;-65
2021/09/12 01:34:38;;;;;;;3.55;3.03;;;16.30;99.90;;;;;;5012944;28;20119;-68
2021/09/12 01:37:05;;;;;;;3.22;2.92;;;16.30;99.90;;;;;;5012997;28;20078;-66
2021/09/12 01:39:32;;;;;;;4.07;2.95;;;16.30;99.90;;;;;;5013009;28;20073;-65
2021/09/12 01:41:59;;;;;;;3.35;3.15;;;16.20;99.90;;;;;;5010037;28;20082;-66
2021/09/12 01:44:26;;;;;;;3.88;3.08;;;16.20;99.90;;;;;;5012077;28;20042;-66
2021/09/12 01:46:54;;;;;;;4.07;3.20;;;16.20;99.90;;;;;;5012548;28;20077;-70
2021/09/12 01:49:21;;;;;;;4.93;3.22;;;16.20;99.90;;;;;;5012536;28;20045;-68
2021/09/12 01:51:48;;;;;;;3.40;3.10;;;16.20;99.90;;;;;;5012630;28;20069;-67
2021/09/12 01:54:15;;;;;;;3.60;3.10;;;16.20;99.90;;;;;;5011076;28;20125;-66
2021/09/12 01:56:43;;;;;;;4.72;3.22;;;16.20;99.90;;;;;;5012449;28;20072;-67
2021/09/12 01:59:10;;;;;;;3.85;3.30;;;16.20;99.90;;;;;;5012618;28;20489;-68
2021/09/12 02:01:37;;;;;;;2.83;2.63;;;16.10;99.90;;;;;;5012374;28;20050;-68
2021/09/12 02:04:04;;;;;;;8.63;3.45;;;16.10;99.90;;;;;;5010796;28;20052;-66
2021/09/12 02:06:31;;;;;;;4.78;3.08;;;16.10;99.90;;;;;;5012163;28;20073;-66
2021/09/12 02:08:58;;;;;;;3.17;2.92;;;16.10;99.90;;;;;;5012163;28;20100;-68
2021/09/12 02:11:25;;;;;;;3.53;3.22;;;16.10;99.90;;;;;;5012258;28;20439;-69
2021/09/12 02:13:53;;;;;;;5.18;4.07;;;16.10;99.90;;;;;;5011949;28;20057;-65
2021/09/12 02:16:22;;;;;;;3.40;3.10;;;16.10;99.90;;;;;;5010099;28;20048;-66
2021/09/12 02:18:49;;;;;;;3.58;3.28;;;16.10;99.90;;;;;;5012401;28;20480;-65
2021/09/12 02:21:16;;;;;;;3.42;3.03;;;16.10;99.90;;;;;;5011927;28;20488;-66
2021/09/12 02:23:43;;;;;;;3.70;3.40;;;16.10;99.90;;;;;;5011692;28;20066;-68
2021/09/12 02:26:10;;;;;;;4.15;3.22;;;16.10;99.90;;;;;;5010419;28;20140;-65
2021/09/12 02:28:37;;;;;;;4.95;3.35;;;16.10;99.90;;;;;;5011832;28;20099;-66
2021/09/12 02:31:04;;;;;;;3.22;2.97;;;16.10;99.90;;;;;;5011605;28;20077;-67
2021/09/12 02:33:32;;;;;;;3.92;2.88;;;16.10;99.90;;;;;;5011978;28;20061;-66
2021/09/12 02:35:58;;;;;;;4.72;3.35;;;16.10;99.90;;;;;;5010717;28;20060;-67
2021/09/12 02:38:25;;;;;;;3.83;3.47;;;16.10;99.90;;;;;;5011600;28;20124;-68
2021/09/12 02:40:52;;;;;;;5.35;3.85;;;16.10;99.90;;;;;;5011663;28;20436;-67
2021/09/12 02:43:19;;;;;;;3.53;3.22;;;16.10;99.90;;;;;;5011631;28;20111;-68
2021/09/12 02:45:46;;;;;;;4.40;3.72;;;16.00;99.90;;;;;;5011730;28;20388;-66
2021/09/12 02:48:13;;;;;;;5.13;3.50;;;16.10;99.90;;;;;;5009811;28;20046;-65
2021/09/12 02:50:40;;;;;;;3.55;3.05;;;16.00;99.90;;;;;;5011448;28;20075;-66
2021/09/12 02:53:07;;;;;;;3.53;2.90;;;16.00;99.90;;;;;;5011463;28;20077;-68
2021/09/12 02:55:33;;;;;;;4.10;3.08;;;16.00;99.90;;;;;;5011142;28;20148;-68
2021/09/12 02:58:00;;;;;;;3.45;3.15;;;16.00;99.90;;;;;;5009567;28;20069;-67
2021/09/12 03:00:27;;;;;;;3.45;3.15;;;16.00;99.90;;;;;;5011065;28;20447;-66
2021/09/12 03:02:54;;;;;;;4.22;3.05;;;16.00;99.90;;;;;;5011032;28;20423;-66
2021/09/12 03:05:22;;;;;;;3.78;3.30;;;16.00;99.90;;;;;;5010872;28;20045;-66
2021/09/12 03:07:49;;;;;;;2.88;2.65;;;15.90;99.90;;;;;;5010658;28;20042;-66
2021/09/12 03:10:16;;;;;;;5.07;3.38;;;16.00;99.90;;;;;;5009354;28;20138;-66
2021/09/12 03:12:43;;;;;;;3.15;2.90;;;15.90;99.90;;;;;;5010539;28;20376;-69
2021/09/12 03:15:10;;;;;;;3.85;3.25;;;15.90;99.90;;;;;;5010577;28;20536;-70
2021/09/12 03:17:37;;;;;;;4.18;3.50;;;15.90;99.90;;;;;;5010251;28;20084;-67
2021/09/12 03:20:04;;;;;;;6.88;3.53;;;15.90;99.90;;;;;;5009289;28;20141;-68
2021/09/12 03:22:31;;;;;;;4.05;3.60;;;15.90;99.90;;;;;;5010366;28;20070;-66
2021/09/12 03:24:58;;;;;;;3.88;3.28;;;15.90;99.90;;;;;;5010390;28;20133;-67
2021/09/12 03:27:25;;;;;;;6.45;3.55;;;15.90;99.90;;;;;;5010591;28;20046;-67
2021/09/12 03:29:51;;;;;;;3.85;3.33;;;15.90;99.90;;;;;;5010900;28;20172;-70
2021/09/12 03:32:18;;;;;;;4.65;4.03;;;15.90;99.90;;;;;;5009231;28;20077;-65
2021/09/12 03:34:45;;;;;;;4.95;4.45;;;15.90;99.90;;;;;;5010710;28;20428;-65
2021/09/12 03:37:12;;;;;;;4.97;4.53;;;15.90;99.90;;;;;;5011117;28;20120;-71
2021/09/12 03:39:39;;;;;;;5.43;3.85;;;15.90;99.90;;;;;;5010892;28;20080;-66
2021/09/12 03:42:06;;;;;;;4.40;4.00;;;15.90;99.90;;;;;;5009596;28;20388;-66
2021/09/12 03:44:33;;;;;;;4.13;3.72;;;15.90;99.90;;;;;;5010652;28;20140;-70
2021/09/12 03:47:00;;;;;;;4.18;3.88;;;15.90;99.90;;;;;;5010898;28;20074;-68
2021/09/12 03:49:26;;;;;;;4.45;4.05;;;15.90;99.90;;;;;;5010591;28;20473;-68
2021/09/12 03:51:53;;;;;;;4.88;3.83;;;15.90;99.90;;;;;;5009340;28;20457;-68
2021/09/12 03:54:20;;;;;;;4.07;3.78;;;15.90;99.90;;;;;;5010740;28;20420;-67
2021/09/12 03:56:47;;;;;;;4.22;3.88;;;15.90;99.90;;;;;;5010544;28;20061;-67
2021/09/12 03:59:14;;;;;;;3.40;3.00;;;15.90;99.90;;;;;;5010596;28;20552;-69
2021/09/12 04:01:41;;;;;;;6.28;3.75;;;15.90;99.90;;;;;;5010462;28;20137;-66
2021/09/12 04:04:08;;;;;;;3.97;3.63;;;15.90;99.90;;;;;;5009313;28;20060;-65
2021/09/12 04:06:35;;;;;;;4.28;3.83;;;15.90;99.90;;;;;;5010364;28;20464;-68
2021/09/12 04:09:02;;;;;;;3.85;3.55;;;15.90;99.90;;;;;;5013166;28;20049;-66
2021/09/12 04:11:29;;;;;;;4.60;3.75;;;15.90;99.90;;;;;;5014478;28;20088;-68
2021/09/12 04:13:56;;;;;;;5.03;3.85;;;15.90;99.90;;;;;;5012960;28;20061;-69
2021/09/12 04:16:23;;;;;;;4.65;4.15;;;15.90;99.90;;;;;;5014550;28;20072;-67
2021/09/12 04:18:50;;;;;;;3.65;3.35;;;15.80;99.90;;;;;;5014480;28;20422;-67
2021/09/12 04:21:17;;;;;;;4.25;3.92;;;15.90;99.90;;;;;;5014471;28;20065;-66
2021/09/12 04:23:43;;;;;;;5.22;4.63;;;15.90;99.90;;;;;;5014386;28;20069;-66
2021/09/12 04:26:10;;;;;;;4.82;3.85;;;15.90;99.90;;;;;;5012812;28;20053;-66
2021/09/12 04:28:37;;;;;;;5.03;3.95;;;15.90;99.90;;;;;;5014095;28;20080;-67
2021/09/12 04:31:04;;;;;;;4.95;4.53;;;15.90;99.90;;;;;;5013784;28;20105;-65
2021/09/12 04:33:31;;;;;;;4.57;4.18;;;15.90;99.90;;;;;;5013796;28;20145;-65
2021/09/12 04:35:58;;;;;;;3.75;3.45;;;15.90;99.90;;;;;;5012459;28;20062;-67
2021/09/12 04:38:25;;;;;;;3.58;3.28;;;15.90;99.90;;;;;;5029033;28;20099;-66
2021/09/12 04:40:52;;;;;;;4.63;4.22;;;15.90;99.90;;;;;;5013972;28;20461;-66
2021/09/12 04:43:19;;;;;;;4.32;3.92;;;15.90;99.90;;;;;;5013835;28;20129;-69
2021/09/12 04:45:46;;;;;;;4.43;4.03;;;15.90;99.90;;;;;;5013952;28;20130;-68
2021/09/12 04:48:13;;;;;;;4.78;4.10;;;15.90;99.90;;;;;;5012120;28;20111;-65
2021/09/12 04:50:40;;;;;;;4.95;4.47;;;15.90;99.90;;;;;;5013839;28;20057;-66
2021/09/12 04:53:07;;;;;;;4.40;4.00;;;15.90;99.90;;;;;;5013463;28;20054;-68
2021/09/12 04:55:34;;;;;;;5.10;4.63;;;15.90;99.90;;;;;;5013873;28;20085;-69
2021/09/12 04:58:01;;;;;;;6.07;5.10;;;16.00;99.90;;;;;;5012128;28;20081;-67
2021/09/12 05:00:28;;;;;;;7.10;5.65;;;16.00;99.90;;;;;;5013439;28;20053;-68
2021/09/12 05:02:55;;;;;;;5.93;5.43;;;16.00;99.90;;;;;;5013294;28;20066;-66
2021/09/12 05:05:22;;;;;;;5.68;5.18;;;16.00;99.90;;;;;;5013812;28;20472;-67
2021/09/12 05:07:49;;;;;;;6.05;5.47;;;16.00;99.90;;;;;;5012120;28;20100;-65
2021/09/12 05:10:16;;;;;;;9.38;5.55;;;16.00;99.90;;;;;;5011813;28;20160;-66
2021/09/12 05:12:43;;;;;;;7.22;6.35;;;16.10;99.90;;;;;;5013324;28;20057;-68
2021/09/12 05:15:10;;;;;;;7.40;6.65;;;16.10;99.90;;;;;;5013171;28;20136;-67
2021/09/12 05:17:37;;;;;;;9.90;6.95;;;16.10;99.90;;;;;;5013351;28;20096;-66
2021/09/12 05:20:05;;;;;;;6.78;6.18;;;16.10;99.90;;;;;;5010422;28;20222;-66
2021/09/12 05:22:34;;;;;;;8.20;7.03;;;16.10;99.90;;;;;;5013315;28;20073;-65
2021/09/12 05:25:01;;;;;;;7.55;6.63;;;16.10;99.90;;;;;;5013263;28;20042;-65
2021/09/12 05:27:28;;;;;;;9.73;8.75;;;16.10;99.90;;;;;;5013451;28;20093;-67
2021/09/12 05:29:55;;;;;;;8.55;7.75;;;16.10;99.90;;;;;;5011279;28;20066;-65
2021/09/12 05:32:22;;;;;;;10.57;8.32;;;16.20;99.90;;;;;;5012838;28;20126;-66
2021/09/12 05:34:49;;;;;;;9.77;8.10;;;16.20;99.90;;;;;;5013460;28;20084;-65
2021/09/12 05:37:16;;;;;;;9.60;8.60;;;16.30;99.90;;;;;;5013182;28;20069;-67
2021/09/12 05:39:42;;;;;;;9.98;8.98;;;16.20;99.90;;;;;;5012011;28;20042;-65
2021/09/12 05:42:09;;;;;;;8.27;7.25;;;16.30;99.90;;;;;;5011357;28;20476;-70
2021/09/12 05:44:36;;;;;;;9.55;7.70;;;16.30;99.90;;;;;;5013126;28;20440;-66
2021/09/12 05:47:03;;;;;;;9.07;7.65;;;16.30;99.90;;;;;;5012998;28;20107;-66
2021/09/12 05:49:30;;;;;;;9.82;8.82;;;16.40;99.90;;;;;;5013053;28;20104;-65
2021/09/12 05:51:57;;;;;;;11.75;8.77;;;16.40;99.90;;;;;;5011667;28;20065;-67
2021/09/12 05:54:24;;;;;;;9.38;8.07;;;16.40;99.90;;;;;;5012968;28;20076;-69
2021/09/12 05:56:51;;;;;;;8.82;7.97;;;16.40;99.90;;;;;;5012886;28;20140;-65
2021/09/12 05:59:18;;;;;;;10.68;9.55;;;16.40;99.90;;;;;;5012919;28;20463;-65
2021/09/12 06:01:45;;;;;;;10.07;8.60;;;16.40;99.90;;;;;;5012708;28;20077;-66
2021/09/12 06:04:12;;;;;;;10.75;7.50;;;16.50;99.90;;;;;;5011156;28;20125;-65
2021/09/12 06:06:39;;;;;;;8.60;7.65;;;16.50;99.90;;;;;;5012752;28;20056;-65
2021/09/12 06:09:06;;;;;;;10.23;7.15;;;16.50;99.90;;;;;;5012905;28;20070;-65
2021/09/12 06:11:33;;;;;;;8.45;7.43;;;16.60;99.90;;;;;;5012738;28;20062;-65
2021/09/12 06:14:00;;;;;;;12.95;9.25;;;16.60;99.90;;;;;;5011158;28;20041;-65
2021/09/12 06:16:27;;;;;;;9.30;7.80;;;16.70;99.90;;;;;;5012391;28;20427;-65
2021/09/12 06:18:54;;;;;;;10.35;9.18;;;16.70;99.90;;;;;;5012249;28;20472;-67
2021/09/12 06:21:21;;;;;;;8.07;7.22;;;16.80;99.90;;;;;;5012297;28;20049;-67
2021/09/12 06:23:48;;;;;;;9.00;7.38;;;16.80;99.90;;;;;;5012380;28;20077;-66
2021/09/12 06:26:15;;;;;;;10.18;8.52;;;16.80;99.90;;;;;;5010584;28;20052;-66
2021/09/12 06:28:42;;;;;;;9.57;6.90;;;16.80;99.90;;;;;;5012324;28;20113;-64
2021/09/12 06:31:09;;;;;;;8.32;7.35;;;16.90;99.90;;;;;;5011887;28;20069;-66
2021/09/12 06:33:37;;;;;;;11.32;7.30;;;16.90;99.90;;;;;;5012109;28;20049;-65
2021/09/12 06:36:04;;;;;;;11.07;9.25;;;16.90;99.90;;;;;;5010601;28;20108;-65
2021/09/12 06:38:31;;;;;;;9.30;8.32;;;16.90;99.90;;;;;;5011977;28;20488;-65
2021/09/12 06:40:59;;;;;;;11.23;9.30;;;17.00;99.90;;;;;;5011846;28;20074;-66
2021/09/12 06:43:26;;;;;;;10.63;8.82;;;17.00;99.90;;;;;;5011496;28;20088;-66
2021/09/12 06:45:53;;;;;;;12.30;9.75;;;17.00;99.90;;;;;;5010505;28;20088;-64
2021/09/12 06:48:20;;;;;;;10.57;9.48;;;17.00;99.90;;;;;;5011830;28;20442;-66
2021/09/12 06:50:47;;;;;;;11.10;9.93;;;17.00;99.90;;;;;;5011482;28;20129;-65
2021/09/12 06:53:14;;;;;;;9.93;8.80;;;17.00;99.90;;;;;;5011927;28;20132;-64
2021/09/12 06:55:41;;;;;;;8.23;7.43;;;17.10;99.90;;;;;;5011508;28;20065;-65
2021/09/12 06:58:08;;;;;;;10.00;8.95;;;17.10;99.90;;;;;;5010261;28;20069;-65
2021/09/12 07:00:35;;;;;;;8.77;7.85;;;17.20;99.90;;;;;;5011646;28;20138;-66
2021/09/12 07:03:02;;;;;;;11.40;9.75;;;17.20;99.90;;;;;;5011453;28;20440;-65
2021/09/12 07:05:30;;;;;;;10.90;9.30;;;17.20;99.90;;;;;;5011361;28;20148;-65
2021/09/12 07:07:56;;;;;;;11.40;9.90;;;17.20;99.90;;;;;;5009957;28;20073;-65
2021/09/12 07:10:23;;;;;;;9.93;9.05;;;17.20;99.90;;;;;;5011287;28;20046;-66
2021/09/12 07:12:51;;;;;;;14.93;10.30;;;17.20;99.90;;;;;;5011771;28;20128;-65
2021/09/12 07:15:19;;;;;;;11.63;10.52;;;17.20;99.90;;;;;;5011662;28;20141;-65
2021/09/12 07:17:46;;;;;;;12.70;9.82;;;17.20;99.90;;;;;;5011439;28;20133;-65
2021/09/12 07:20:13;;;;;;;13.13;10.95;;;17.30;99.90;;;;;;5010092;28;20141;-65
2021/09/12 07:22:40;;;;;;;14.13;12.63;;;17.30;99.90;;;;;;5011026;28;20099;-66
2021/09/12 07:25:08;;;;;;;14.73;12.38;;;17.40;99.90;;;;;;5010921;28;20490;-66
2021/09/12 07:27:34;;;;;;;16.02;12.10;;;17.40;99.90;;;;;;5011438;28;20061;-64
2021/09/12 07:30:10;;;;;;;17.52;12.48;;;17.50;99.90;;;;;;5010008;28;20050;-66
2021/09/12 07:32:37;;;;;;;13.88;10.75;;;17.50;99.90;;;;;;5011211;28;20109;-68
2021/09/12 07:35:04;;;;;;;14.00;10.90;;;17.50;99.90;;;;;;5011267;28;20429;-67
2021/09/12 07:37:31;;;;;;;11.35;9.88;;;17.60;99.90;;;;;;5010929;28;20068;-66
2021/09/12 07:39:58;;;;;;;12.52;11.35;;;17.60;99.90;;;;;;5009888;28;20077;-65
2021/09/12 07:42:27;;;;;;;14.82;10.07;;;17.70;99.90;;;;;;5009868;28;20124;-67
2021/09/12 07:44:53;;;;;;;11.32;10.00;;;17.80;99.90;;;;;;5011205;28;20081;-65
2021/09/12 07:47:20;;;;;;;13.43;10.95;;;17.80;99.90;;;;;;5011253;28;20077;-68
2021/09/12 07:49:47;;;;;;;19.20;10.60;;;17.90;99.90;;;;;;5011248;28;20073;-65
2021/09/12 07:52:14;;;;;;;11.48;10.27;;;17.90;99.90;;;;;;5009346;28;20070;-66
2021/09/12 07:54:41;;;;;;;11.73;10.68;;;17.90;99.90;;;;;;5011189;28;20141;-66
2021/09/12 07:57:10;;;;;;;11.68;10.52;;;18.00;99.90;;;;;;5010998;28;20049;-67
2021/09/12 07:59:37;;;;;;;12.10;10.90;;;18.00;99.90;;;;;;5010949;28;20460;-67
2021/09/12 08:02:04;;;;;;;11.40;10.07;;;18.00;99.90;;;;;;5009395;28;20428;-67
2021/09/12 08:04:31;;;;;;;16.30;11.63;;;18.10;99.90;;;;;;5011201;28;20041;-65
2021/09/12 08:06:59;;;;;;;11.88;10.25;;;18.10;99.90;;;;;;5010799;28;20077;-67
2021/09/12 08:09:26;;;;;;;12.95;11.38;;;18.10;99.90;;;;;;5010768;28;20488;-67
2021/09/12 08:11:53;;;;;;;13.70;11.30;;;18.20;99.90;;;;;;5009278;28;20060;-65
2021/09/12 08:14:20;;;;;;;13.40;11.15;;;18.20;99.90;;;;;;5010770;28;20065;-66
2021/09/12 08:16:47;;;;;;;14.13;10.23;;;18.20;99.90;;;;;;5010508;28;20050;-66
2021/09/12 08:19:13;;;;;;;12.15;9.52;;;18.30;99.90;;;;;;5010731;28;20046;-72
2021/09/12 08:21:42;;;;;;;12.73;11.15;;;18.30;99.90;;;;;;5010440;28;20050;-65
2021/09/12 08:24:10;;;;;;;11.70;10.45;;;18.30;99.90;;;;;;5009343;28;20472;-66
2021/09/12 08:26:37;;;;;;;18.30;10.88;;;18.40;99.90;;;;;;5010338;28;20112;-65
2021/09/12 08:29:03;;;;;;;12.60;10.20;;;18.40;99.90;;;;;;5010909;28;20070;-65
2021/09/12 08:31:30;;;;;;;12.77;11.15;;;18.50;99.90;;;;;;5010534;28;20495;-66
2021/09/12 08:33:57;;;;;;;14.02;11.35;;;18.60;99.90;;;;;;5008951;28;20488;-68
2021/09/12 08:36:24;;;;;;;16.65;10.02;;;18.60;99.90;;;;;;5010200;28;20046;-68
2021/09/12 08:38:51;;;;;;;12.85;10.35;;;18.60;99.90;;;;;;5010232;28;20054;-66
2021/09/12 08:41:19;;;;;;;11.52;9.38;;;18.70;99.90;;;;;;5010571;28;20069;-67
2021/09/12 08:43:47;;;;;;;9.95;9.05;;;18.70;99.90;;;;;;5010335;28;20073;-64
2021/09/12 08:46:15;;;;;;;12.52;10.27;;;18.90;99.90;;;;;;5008895;28;20045;-65
2021/09/12 08:48:44;;;;;;;11.13;10.00;;;18.80;99.90;;;;;;5010590;28;20049;-65
2021/09/12 08:51:12;;;;;;;13.85;10.25;;;18.80;99.90;;;;;;5010436;28;20124;-64
2021/09/12 08:53:39;;;;;;;10.98;9.57;;;18.80;99.90;;;;;;5010835;28;20088;-66
2021/09/12 08:56:06;;;;;;;9.90;8.90;;;18.80;99.90;;;;;;5012461;28;20077;-65
2021/09/12 08:58:33;;;;;;;12.00;10.43;;;18.90;99.90;;;;;;5013520;28;20472;-70
2021/09/12 09:01:00;;;;;;;16.15;11.00;;;18.90;99.90;;;;;;5013687;28;20144;-70
2021/09/12 09:03:41;;;;;;;10.85;9.85;;;18.90;99.90;;;;;;5013571;28;20068;-66
2021/09/12 09:06:13;;;;;;;12.63;9.95;;;19.00;99.90;;;;;;5012102;28;20046;-64
2021/09/12 09:08:56;;;;;;;15.35;10.60;;;19.00;99.90;;;;;;5013318;28;20464;-65
2021/09/12 09:11:29;;;;;;;13.07;9.85;;;19.00;99.90;;;;;;5013573;28;20048;-65
2021/09/12 09:14:10;;;;;;;13.95;10.05;;;19.00;99.90;;;;;;5012354;28;20116;-65
2021/09/12 09:16:38;;;;;;;13.73;10.30;;;19.00;99.90;;;;;;5013528;28;20069;-69
2021/09/12 09:19:07;;;;;;;12.73;9.68;;;19.00;99.90;;;;;;5013215;28;20050;-65
2021/09/12 09:21:39;;;;;;;10.70;9.60;;;19.00;99.90;;;;;;5013443;28;20057;-65
2021/09/12 09:24:29;;;;;;;10.40;9.10;;;19.10;99.90;;;;;;5012496;28;20057;-67
2021/09/12 09:26:57;;;;;;;11.55;9.48;;;19.10;99.90;;;;;;5013495;28;20100;-65
2021/09/12 09:29:29;;;;;;;11.98;9.50;;;19.10;99.90;;;;;;5013259;28;20100;-68
2021/09/12 09:32:12;;;;;;;15.88;11.57;;;19.10;99.90;;;;;;5011859;28;20050;-67
2021/09/12 09:34:41;;;;;;;14.88;11.10;;;19.00;99.90;;;;;;5013278;28;20057;-66
2021/09/12 09:37:13;;;;;;;14.05;9.32;;;19.00;99.90;;;;;;5013004;28;20104;-68
2021/09/12 09:39:41;;;;;;;12.05;9.57;;;18.90;99.90;;;;;;5012998;28;20143;-67
2021/09/12 09:42:35;;;;;;;9.88;8.65;;;18.90;99.90;;;;;;5011564;28;20050;-67
2021/09/12 09:45:10;;;;;;;18.70;11.20;;;18.90;99.90;;;;;;5012913;28;20105;-65
2021/09/12 09:47:38;;;;;;;11.50;9.35;;;18.70;99.90;;;;;;5012920;28;20077;-70
2021/09/12 09:50:20;;;;;;;13.43;10.88;;;18.70;99.90;;;;;;5011963;28;20107;-65
2021/09/12 09:52:50;;;;;;;12.02;9.40;;;18.70;99.90;;;;;;5012608;28;20076;-66
2021/09/12 09:55:20;;;;;;;12.30;9.10;;;18.70;99.90;;;;;;5012774;28;20050;-67
2021/09/12 09:57:50;;;;;;;12.57;9.35;;;18.80;99.90;;;;;;5012851;28;20058;-66
2021/09/12 10:00:18;;;;;;;11.60;10.45;;;18.90;99.90;;;;;;5011318;28;20069;-63
2021/09/12 10:02:46;;;;;;;15.15;9.43;;;18.90;99.90;;;;;;5012397;28;20154;-63
2021/09/12 10:05:17;;;;;;;10.98;9.27;;;18.90;99.90;;;;;;5011614;28;20052;-65
2021/09/12 10:07:44;;;;;;;10.75;8.18;;;18.80;99.90;;;;;;5012518;28;20041;-63
2021/09/12 10:10:13;;;;;;;16.63;9.65;;;18.80;99.90;;;;;;5010814;28;20053;-64
2021/09/12 10:12:53;;;;;;;10.98;8.30;;;18.80;99.90;;;;;;5012138;28;20103;-66
2021/09/12 10:15:24;;;;;;;13.60;9.38;;;18.90;99.90;;;;;;5012564;28;20045;-66
2021/09/12 10:17:52;;;;;;;14.32;10.38;;;19.10;99.90;;;;;;5012394;28;20491;-62
2021/09/12 10:20:25;;;;;;;10.95;8.52;;;19.20;99.90;;;;;;5011447;28;20414;-63
2021/09/12 10:23:02;;;;;;;10.70;7.25;;;19.50;99.90;;;;;;5012056;28;20503;-63
2021/09/12 10:25:34;;;;;;;9.85;7.60;;;19.70;99.90;;;;;;5012272;28;20480;-64
2021/09/12 10:28:05;;;;;;;12.05;7.88;;;19.90;99.90;;;;;;5010816;28;20046;-64
2021/09/12 10:30:40;;;;;;;8.38;7.20;;;20.10;99.90;;;;;;5012091;28;20125;-66
2021/09/12 10:33:07;;;;;;;12.77;7.88;;;20.10;99.90;;;;;;5011963;28;20088;-65
2021/09/12 10:35:55;;;;;;;6.93;6.22;;;20.00;99.90;;;;;;5012083;28;20100;-63
2021/09/12 10:38:25;;;;;;;16.80;6.15;;;20.00;99.90;;;;;;5010292;28;20132;-63
2021/09/12 10:40:53;;;;;;;7.03;5.43;;;20.10;99.90;;;;;;5011558;28;20073;-64
2021/09/12 10:43:26;;;;;;;8.77;6.45;;;20.00;99.90;;;;;;5011232;28;20073;-65
2021/09/12 10:46:02;;;;;;;6.32;5.72;;;19.90;99.90;;;;;;5009688;28;20096;-64
2021/09/12 10:48:37;;;;;;;4.65;4.07;;;19.90;99.90;;;;;;5010763;28;20400;-64
2021/09/12 10:51:06;;;;;;;5.80;5.30;;;20.00;99.90;;;;;;5011232;28;20115;-66
2021/09/12 10:53:48;;;;;;;5.97;5.00;;;20.00;99.90;;;;;;5011258;28;20074;-65
2021/09/12 10:56:18;;;;;;;5.45;3.58;;;20.00;99.90;;;;;;5009942;28;20069;-65
2021/09/12 10:58:50;;;;;;;5.40;4.38;;;19.90;99.90;;;;;;5011048;28;20046;-69
2021/09/12 11:01:33;;;;;;;5.18;4.32;;;20.10;99.90;;;;;;5011262;28;20053;-65
2021/09/12 11:04:01;;;;;;;4.03;3.70;;;20.20;99.90;;;;;;5009573;28;20096;-71
2021/09/12 11:06:30;;;;;;;3.60;3.25;;;20.30;99.90;;;;;;5010921;28;20100;-64
2021/09/12 11:08:58;;;;;;;3.75;3.45;;;20.30;99.90;;;;;;5010976;28;20073;-66
2021/09/12 11:11:26;;;;;;;4.07;3.55;;;20.50;99.90;;;;;;5011181;28;20049;-64
2021/09/12 11:13:55;;;;;;;5.00;4.60;;;20.50;99.90;;;;;;5009862;28;20061;-65
2021/09/12 11:16:24;;;;;;;4.47;4.07;;;20.60;99.90;;;;;;5010674;28;20050;-66
2021/09/12 11:19:00;;;;;;;4.38;3.97;;;20.70;99.90;;;;;;5011185;28;20050;-64
2021/09/12 11:21:34;;;;;;;4.50;4.10;;;20.80;99.90;;;;;;5011494;28;20061;-64
2021/09/12 11:24:12;;;;;;;3.58;3.28;;;20.60;99.90;;;;;;5009551;28;20046;-65
2021/09/12 11:26:47;;;;;;;4.85;3.90;;;20.60;99.90;;;;;;5011009;28;20046;-68
2021/09/12 11:29:17;;;;;;;9.07;3.83;;;20.50;99.90;;;;;;5011400;28;20042;-67
2021/09/12 11:31:49;;;;;;;4.10;2.97;;;20.60;99.90;;;;;;5011309;28;20049;-64
2021/09/12 11:34:20;;;;;;;4.07;2.60;;;20.90;99.90;;;;;;5009522;28;20447;-64
2021/09/12 11:36:58;;;;;;;3.65;2.97;;;21.00;99.90;;;;;;5011289;28;20054;-66
2021/09/12 11:39:30;;;;;;;3.88;3.40;;;21.20;99.90;;;;;;5011060;28;20073;-64
2021/09/12 11:42:00;;;;;;;4.00;3.60;;;21.10;99.90;;;;;;5009586;28;20045;-66
2021/09/12 11:44:34;;;;;;;3.63;3.33;;;21.10;99.90;;;;;;5011415;28;20066;-65
2021/09/12 11:47:03;;;;;;;3.17;2.88;;;21.20;99.90;;;;;;5011002;28;20107;-65
2021/09/12 11:49:30;;;;;;;4.60;4.10;;;21.30;99.90;;;;;;5010711;28;20049;-65
2021/09/12 11:51:57;;;;;;;4.40;3.08;;;21.20;99.90;;;;;;5009512;28;20089;-65
2021/09/12 11:54:27;;;;;;;3.20;2.83;;;21.10;99.90;;;;;;5010607;28;20092;-63
2021/09/12 11:57:13;;;;;;;4.30;3.03;;;21.00;99.90;;;;;;5010653;28;20516;-66
2021/09/12 11:59:45;;;;;;;2.63;2.42;;;20.90;99.90;;;;;;5010812;28;20145;-70
2021/09/12 12:02:21;;;;;;;4.82;3.53;;;21.10;99.90;;;;;;5008628;28;20058;-65
2021/09/12 12:04:49;;;;;;;3.10;2.90;;;21.20;99.90;;;;;;5010646;28;20446;-65
2021/09/12 12:07:17;;;;;;;2.95;2.75;;;21.20;99.90;;;;;;5010702;28;20080;-69
2021/09/12 12:09:46;;;;;;;3.30;3.10;;;21.20;99.90;;;;;;5010792;28;20140;-67
2021/09/12 12:12:20;;;;;;;2.90;2.42;;;21.30;99.90;;;;;;5009321;28;20393;-64
2021/09/12 12:15:05;;;;;;;2.45;2.17;;;21.30;99.90;;;;;;5010303;28;20127;-66
2021/09/12 12:17:32;;;;;;;4.05;3.05;;;21.30;99.90;;;;;;5010338;28;20046;-68
2021/09/12 12:20:00;;;;;;;2.10;1.90;;;21.30;99.90;;;;;;5008842;28;20459;-67
2021/09/12 12:22:37;;;;;;;1.83;1.73;;;21.20;99.90;;;;;;5010541;28;20061;-64
2021/09/12 12:25:05;;;;;;;1.75;1.65;;;21.20;99.90;;;;;;5010823;28;20049;-66
2021/09/12 12:27:42;;;;;;;2.13;1.92;;;21.20;99.90;;;;;;5009193;28;20050;-65
2021/09/12 12:30:09;;;;;;;2.00;1.90;;;21.10;99.90;;;;;;5012378;28;20112;-64
2021/09/12 12:32:37;;;;;;;4.18;2.83;;;21.20;99.90;;;;;;5014163;28;20096;-67
2021/09/12 12:35:17;;;;;;;3.47;2.67;;;21.20;99.90;;;;;;5014312;28;20054;-66
2021/09/12 12:37:46;;;;;;;3.15;2.95;;;21.10;99.90;;;;;;5014249;28;20046;-64
2021/09/12 12:40:18;;;;;;;4.53;4.00;;;21.10;99.90;;;;;;5012530;28;20400;-65
2021/09/12 12:42:51;;;;;;;4.68;4.20;;;21.00;99.90;;;;;;5014258;28;20077;-65
2021/09/12 12:45:24;;;;;;;4.47;4.07;;;21.00;99.90;;;;;;5014275;28;20129;-65
2021/09/12 12:48:15;;;;;;;4.45;4.05;;;20.90;99.90;;;;;;5014217;28;20049;-64
2021/09/12 12:50:47;;;;;;;4.40;4.00;;;20.90;99.90;;;;;;5007579;28;20513;-66